createdAt,value
2022-11-10T00:01:44.519Z,96652.09
2022-11-10T00:04:11.183Z,96685.31
2022-11-10T00:06:37.900Z,96737.13
2022-11-10T00:09:04.558Z,96449.25
2022-11-10T00:11:31.237Z,96735.91
2022-11-10T00:14:16.118Z,96577.38
2022-11-10T00:17:00.961Z,96694.28
2022-11-10T00:19:28.710Z,96628.34
2022-11-10T00:21:55.742Z,96770.19
2022-11-10T00:24:22.577Z,96613.25
2022-11-10T00:26:49.254Z,96746.00
2022-11-10T00:29:15.902Z,96599.09
2022-11-10T00:31:42.564Z,96645.88
2022-11-10T00:34:11.981Z,96697.13
2022-11-10T00:36:39.238Z,96843.41
2022-11-10T00:39:06.045Z,96709.78
2022-11-10T00:41:32.685Z,96598.28
2022-11-10T00:43:59.342Z,96694.81
2022-11-10T00:46:26.000Z,96807.88
2022-11-10T00:52:39.221Z,96711.81
2022-11-10T00:58:53.387Z,96683.66
2022-11-10T01:05:07.817Z,96832.41
2022-11-10T01:11:27.090Z,96641.94
2022-11-10T01:13:54.397Z,96605.19
2022-11-10T01:16:29.099Z,96717.13
2022-11-10T01:18:57.940Z,96751.13
2022-11-10T01:21:24.930Z,96661.06
2022-11-10T01:23:51.641Z,96705.00
2022-11-10T01:26:18.328Z,96533.81
2022-11-10T01:28:45.083Z,96699.69
2022-11-10T01:31:13.592Z,96727.06
2022-11-10T01:33:40.202Z,96685.03
2022-11-10T01:36:07.421Z,96597.75
2022-11-10T01:38:35.720Z,96791.03
2022-11-10T01:41:02.732Z,96783.16
2022-11-10T01:43:29.451Z,96715.06
2022-11-10T01:45:56.669Z,96851.06
2022-11-10T01:48:49.880Z,96850.94
2022-11-10T01:51:21.002Z,96858.69
2022-11-10T01:53:51.398Z,96702.69
2022-11-10T01:56:18.047Z,96687.75
2022-11-10T01:58:51.703Z,96770.22
2022-11-10T02:01:18.367Z,96724.06
2022-11-10T02:03:50.938Z,96670.59
2022-11-10T02:06:18.207Z,96736.31
2022-11-10T02:08:44.928Z,96789.13
2022-11-10T02:11:11.595Z,96873.66
2022-11-10T02:13:38.228Z,96640.53
2022-11-10T02:16:05.151Z,96667.75
2022-11-10T02:18:31.759Z,96811.88
2022-11-10T02:20:58.411Z,96742.41
2022-11-10T02:23:30.947Z,96880.75
2022-11-10T02:25:57.833Z,96736.03
2022-11-10T02:28:25.291Z,96863.19
2022-11-10T02:30:52.012Z,96729.50
2022-11-10T02:33:18.921Z,96621.75
2022-11-10T02:35:48.663Z,96741.31
2022-11-10T02:38:16.730Z,96708.00
2022-11-10T02:40:43.360Z,96732.88
2022-11-10T02:43:13.532Z,96631.53
2022-11-10T02:45:44.116Z,96708.66
2022-11-10T02:48:11.217Z,96669.53
2022-11-10T02:50:38.006Z,96876.94
2022-11-10T02:53:04.708Z,96794.13
2022-11-10T02:55:31.329Z,96684.34
2022-11-10T02:57:58.340Z,96835.97
2022-11-10T03:00:25.015Z,96822.75
2022-11-10T03:03:05.135Z,96667.06
2022-11-10T03:05:32.106Z,96608.41
2022-11-10T03:08:00.219Z,96737.25
2022-11-10T03:10:27.028Z,96733.69
2022-11-10T03:12:57.369Z,96766.78
2022-11-10T03:15:24.380Z,96733.84
2022-11-10T03:17:51.148Z,96767.72
2022-11-10T03:20:17.993Z,96894.34
2022-11-10T03:22:44.651Z,96810.72
2022-11-10T03:25:11.526Z,96741.88
2022-11-10T03:27:38.229Z,96802.03
2022-11-10T03:30:05.950Z,96589.66
2022-11-10T03:32:32.877Z,96758.72
2022-11-10T03:34:59.510Z,96834.03
2022-11-10T03:37:26.133Z,96760.34
2022-11-10T03:39:52.761Z,96767.84
2022-11-10T03:42:19.376Z,96688.25
2022-11-10T03:44:45.992Z,96716.56
2022-11-10T03:47:12.639Z,96692.75
2022-11-10T03:49:39.376Z,96772.88
2022-11-10T03:52:06.033Z,96648.34
2022-11-10T03:54:32.682Z,96767.44
2022-11-10T03:56:59.265Z,96664.16
2022-11-10T03:59:25.858Z,96787.44
2022-11-10T04:01:52.663Z,96708.91
2022-11-10T04:04:37.851Z,96757.63
2022-11-10T04:07:22.945Z,96797.63
2022-11-10T04:09:49.539Z,96831.28
2022-11-10T04:12:34.595Z,96770.69
2022-11-10T04:15:19.768Z,96948.16
2022-11-10T04:21:33.258Z,96855.94
2022-11-10T04:23:59.943Z,96955.25
2022-11-10T04:26:29.385Z,96945.19
2022-11-10T04:28:57.603Z,96759.09
2022-11-10T04:31:25.143Z,96720.56
2022-11-10T04:33:51.904Z,96673.19
2022-11-10T04:36:20.111Z,96732.75
2022-11-10T04:38:46.782Z,96780.03
2022-11-10T04:41:13.672Z,96972.41
2022-11-10T04:43:40.344Z,96802.75
2022-11-10T04:46:07.619Z,96831.34
2022-11-10T04:48:34.583Z,96823.81
2022-11-10T04:51:07.302Z,96915.53
2022-11-10T04:53:34.042Z,96824.75
2022-11-10T04:56:00.749Z,96766.81
2022-11-10T04:58:27.371Z,97022.63
2022-11-10T05:00:54.016Z,96893.41
2022-11-10T05:03:20.985Z,96898.56
2022-11-10T05:05:49.274Z,96826.50
2022-11-10T05:08:16.037Z,97012.44
2022-11-10T05:10:42.640Z,96879.91
2022-11-10T05:13:09.354Z,97010.09
2022-11-10T05:15:36.067Z,96872.69
2022-11-10T05:18:02.746Z,96874.81
2022-11-10T05:20:29.479Z,96858.09
2022-11-10T05:23:14.834Z,96879.34
2022-11-10T05:25:41.799Z,97015.69
2022-11-10T05:28:09.734Z,96923.88
2022-11-10T05:30:36.670Z,96912.59
2022-11-10T05:33:03.356Z,96815.25
2022-11-10T05:35:29.975Z,96880.28
2022-11-10T05:37:56.641Z,96821.06
2022-11-10T05:40:23.272Z,96895.94
2022-11-10T05:42:53.814Z,96895.03
2022-11-10T05:45:24.539Z,96863.47
2022-11-10T05:47:51.464Z,96791.59
2022-11-10T05:50:18.906Z,96909.56
2022-11-10T05:52:50.141Z,96970.16
2022-11-10T05:55:18.254Z,96909.72
2022-11-10T05:57:45.425Z,96864.88
2022-11-10T06:00:13.541Z,97047.16
2022-11-10T06:02:40.162Z,96755.13
2022-11-10T06:05:07.290Z,96908.75
2022-11-10T06:07:33.999Z,96825.16
2022-11-10T06:10:00.673Z,96862.66
2022-11-10T06:12:30.389Z,97060.53
2022-11-10T06:14:58.138Z,96883.44
2022-11-10T06:17:25.435Z,96928.28
2022-11-10T06:19:52.125Z,96916.41
2022-11-10T06:22:18.844Z,96883.03
2022-11-10T06:24:45.476Z,96815.53
2022-11-10T06:27:12.321Z,96999.75
2022-11-10T06:29:38.972Z,97068.00
2022-11-10T06:32:05.640Z,96909.88
2022-11-10T06:34:32.253Z,97033.34
2022-11-10T06:36:58.946Z,96861.06
2022-11-10T06:39:25.563Z,96969.53
2022-11-10T06:41:52.167Z,97058.94
2022-11-10T06:44:18.848Z,96942.16
2022-11-10T06:46:45.482Z,96917.34
2022-11-10T06:49:12.065Z,97027.97
2022-11-10T06:51:38.721Z,96998.84
2022-11-10T06:54:05.561Z,96965.19
2022-11-10T06:56:32.223Z,96945.53
2022-11-10T06:58:58.967Z,96942.44
2022-11-10T07:01:26.875Z,97022.69
2022-11-10T07:04:18.145Z,97061.63
2022-11-10T07:06:41.293Z,97053.06
2022-11-10T07:09:08.167Z,97090.44
2022-11-10T07:11:35.136Z,97070.78
2022-11-10T07:14:02.121Z,96989.53
2022-11-10T07:16:29.620Z,96983.94
2022-11-10T07:18:57.144Z,97195.56
2022-11-10T07:21:23.840Z,97036.28
2022-11-10T07:23:59.891Z,97180.25
2022-11-10T07:26:26.627Z,97090.56
2022-11-10T07:28:53.365Z,96896.00
2022-11-10T07:31:20.117Z,97087.69
2022-11-10T07:33:53.315Z,97154.28
2022-11-10T07:36:21.808Z,97092.78
2022-11-10T07:38:48.445Z,96973.91
2022-11-10T07:41:15.092Z,97019.78
2022-11-10T07:43:41.929Z,97030.16
2022-11-10T07:46:09.411Z,97073.94
2022-11-10T07:48:36.188Z,97113.69
2022-11-10T07:51:02.813Z,96997.50
2022-11-10T07:53:29.400Z,97213.59
2022-11-10T07:55:57.405Z,97206.00
2022-11-10T07:58:24.104Z,97086.69
2022-11-10T08:01:02.774Z,97194.66
2022-11-10T08:03:32.264Z,97216.34
2022-11-10T08:05:58.856Z,97069.88
2022-11-10T08:08:25.565Z,97040.53
2022-11-10T08:10:52.217Z,97074.38
2022-11-10T08:13:18.972Z,97079.56
2022-11-10T08:15:45.746Z,97147.00
2022-11-10T08:18:18.021Z,97206.91
2022-11-10T08:20:44.883Z,96936.44
2022-11-10T08:23:11.536Z,97167.34
2022-11-10T08:25:38.335Z,97250.06
2022-11-10T08:28:17.094Z,97205.72
2022-11-10T08:30:44.789Z,97199.38
2022-11-10T08:33:12.582Z,97217.72
2022-11-10T08:35:43.711Z,97094.78
2022-11-10T08:38:12.740Z,97084.06
2022-11-10T08:40:39.488Z,97140.13
2022-11-10T08:43:08.936Z,97104.22
2022-11-10T08:45:36.305Z,97182.44
2022-11-10T08:48:19.749Z,97267.91
2022-11-10T08:50:47.004Z,97207.78
2022-11-10T08:53:15.179Z,97286.47
2022-11-10T08:55:42.129Z,97189.88
2022-11-10T08:58:14.052Z,97230.72
2022-11-10T09:00:40.792Z,97294.00
2022-11-10T09:03:09.151Z,97231.53
2022-11-10T09:05:36.141Z,97325.50
2022-11-10T09:08:03.073Z,97225.38
2022-11-10T09:10:30.476Z,97223.47
2022-11-10T09:13:05.211Z,97281.13
2022-11-10T09:15:32.437Z,97246.81
2022-11-10T09:18:00.065Z,97259.13
2022-11-10T09:20:30.377Z,97326.97
2022-11-10T09:22:57.128Z,97198.84
2022-11-10T09:25:23.881Z,97123.91
2022-11-10T09:27:51.860Z,97265.41
2022-11-10T09:30:18.515Z,97263.63
2022-11-10T09:32:46.879Z,97269.53
2022-11-10T09:35:13.791Z,97241.34
2022-11-10T09:37:40.629Z,97285.91
2022-11-10T09:40:12.741Z,97274.28
2022-11-10T09:42:40.717Z,97282.47
2022-11-10T09:45:21.888Z,97160.94
2022-11-10T09:47:57.344Z,97348.50
2022-11-10T09:50:50.692Z,97324.22
2022-11-10T09:53:21.100Z,97278.44
2022-11-10T09:55:53.492Z,97166.13
2022-11-10T09:58:20.304Z,97329.25
2022-11-10T10:00:51.126Z,97262.31
2022-11-10T10:03:20.336Z,97374.00
2022-11-10T10:05:51.706Z,97374.53
2022-11-10T10:08:50.782Z,97243.72
2022-11-10T10:11:39.015Z,97379.59
2022-11-10T10:14:34.676Z,97380.81
2022-11-10T10:17:27.392Z,97330.03
2022-11-10T10:20:05.183Z,97171.00
2022-11-10T10:22:44.519Z,97116.50
2022-11-10T10:25:22.974Z,97382.34
2022-11-10T10:27:52.487Z,97338.75
2022-11-10T10:30:20.003Z,97328.34
2022-11-10T10:32:46.713Z,97243.66
2022-11-10T10:35:14.776Z,97298.00
2022-11-10T10:37:46.424Z,97215.13
2022-11-10T10:40:20.991Z,97311.06
2022-11-10T10:42:47.723Z,97151.88
2022-11-10T10:45:23.463Z,97403.69
2022-11-10T10:47:51.805Z,97308.53
2022-11-10T10:50:35.511Z,97337.81
2022-11-10T10:53:09.466Z,97308.94
2022-11-10T10:55:36.442Z,97322.31
2022-11-10T10:58:05.420Z,97422.78
2022-11-10T11:00:33.235Z,97309.75
2022-11-10T11:03:07.374Z,97418.56
2022-11-10T11:05:33.960Z,97287.75
2022-11-10T11:08:01.889Z,97273.25
2022-11-10T11:10:30.351Z,97351.31
2022-11-10T11:13:30.644Z,97352.06
2022-11-10T11:16:01.871Z,97343.81
2022-11-10T11:18:29.671Z,97354.63
2022-11-10T11:21:42.564Z,97417.16
2022-11-10T11:24:19.718Z,97146.25
2022-11-10T11:27:13.585Z,97225.63
2022-11-10T11:29:55.653Z,97442.00
2022-11-10T11:32:29.638Z,97440.59
2022-11-10T11:35:20.167Z,97367.97
2022-11-10T11:38:18.669Z,97354.94
2022-11-10T11:41:13.042Z,97307.38
2022-11-10T11:44:19.686Z,97446.66
2022-11-10T11:47:21.337Z,97379.56
2022-11-10T11:50:06.339Z,97453.56
2022-11-10T11:52:48.046Z,97449.63
2022-11-10T11:55:43.989Z,97415.88
2022-11-10T11:58:22.995Z,97455.44
2022-11-10T12:01:13.292Z,97465.38
2022-11-10T12:04:29.345Z,97449.41
2022-11-10T12:07:23.969Z,97448.88
2022-11-10T12:09:51.417Z,97377.00
2022-11-10T12:12:36.832Z,97445.63
2022-11-10T12:15:23.540Z,97446.84
2022-11-10T12:18:27.909Z,97453.84
2022-11-10T12:21:28.279Z,97446.16
2022-11-10T12:24:10.177Z,97339.56
2022-11-10T12:26:58.389Z,97307.22
2022-11-10T12:29:48.746Z,97375.78
2022-11-10T12:32:41.974Z,97452.06
2022-11-10T12:35:28.667Z,97429.94
2022-11-10T12:38:13.925Z,97423.50
2022-11-10T12:40:44.023Z,97384.69
2022-11-10T12:43:39.729Z,97348.56
2022-11-10T12:46:07.175Z,97479.28
2022-11-10T12:49:00.904Z,97387.13
2022-11-10T12:51:29.396Z,97447.38
2022-11-10T12:53:56.036Z,97390.34
2022-11-10T12:56:27.252Z,97375.97
2022-11-10T12:59:15.318Z,97446.97
2022-11-10T13:01:45.047Z,97461.88
2022-11-10T13:04:16.419Z,97467.16
2022-11-10T13:06:50.899Z,97419.03
2022-11-10T13:09:34.195Z,97415.38
2022-11-10T13:12:20.848Z,97489.38
2022-11-10T13:14:47.591Z,97325.28
2022-11-10T13:17:26.314Z,97486.94
2022-11-10T13:19:53.841Z,97485.28
2022-11-10T13:22:40.914Z,97420.31
2022-11-10T13:25:35.603Z,97495.97
2022-11-10T13:28:02.219Z,97431.69
2022-11-10T13:30:41.870Z,97463.41
2022-11-10T13:33:26.549Z,97494.97
2022-11-10T13:36:05.504Z,97422.69
2022-11-10T13:38:32.095Z,97492.69
2022-11-10T13:41:25.309Z,97417.59
2022-11-10T13:43:55.728Z,97400.38
2022-11-10T13:46:32.368Z,97417.06
2022-11-10T13:49:32.505Z,97523.44
2022-11-10T13:52:06.330Z,97523.16
2022-11-10T13:54:54.711Z,97523.31
2022-11-10T13:57:35.192Z,97414.97
2022-11-10T14:00:02.898Z,97462.84
2022-11-10T14:02:41.622Z,97533.00
2022-11-10T14:05:09.669Z,97522.19
2022-11-10T14:07:44.434Z,97374.00
2022-11-10T14:10:16.477Z,97543.69
2022-11-10T14:12:48.456Z,97494.56
2022-11-10T14:15:17.771Z,97457.13
2022-11-10T14:17:49.224Z,97529.19
2022-11-10T14:20:27.617Z,97562.28
2022-11-10T14:22:54.602Z,97447.22
2022-11-10T14:25:27.000Z,97189.16
2022-11-10T14:27:57.973Z,97506.81
2022-11-10T14:30:25.702Z,97504.84
2022-11-10T14:33:25.152Z,97444.97
2022-11-10T14:36:04.990Z,97427.28
2022-11-10T14:38:35.784Z,97486.47
2022-11-10T14:41:03.552Z,97459.06
2022-11-10T14:43:30.997Z,97546.38
2022-11-10T14:45:57.886Z,97423.63
2022-11-10T14:48:26.545Z,97497.81
2022-11-10T14:50:53.326Z,97490.81
2022-11-10T14:53:31.900Z,97480.56
2022-11-10T14:55:58.547Z,97455.41
2022-11-10T14:58:35.006Z,97358.03
2022-11-10T15:01:02.424Z,97542.25
2022-11-10T15:03:39.455Z,97599.25
2022-11-10T15:06:08.950Z,97575.31
2022-11-10T15:08:35.579Z,97549.16
2022-11-10T15:11:02.225Z,97609.81
2022-11-10T15:13:28.812Z,97621.75
2022-11-10T15:16:27.252Z,97613.88
2022-11-10T15:18:55.729Z,97384.72
2022-11-10T15:21:41.105Z,97348.78
2022-11-10T15:24:18.541Z,97481.63
2022-11-10T15:26:45.675Z,97476.09
2022-11-10T15:29:20.400Z,97554.38
2022-11-10T15:31:47.143Z,97602.38
2022-11-10T15:34:31.525Z,97576.25
2022-11-10T15:37:11.165Z,97373.53
2022-11-10T15:39:37.997Z,97482.31
2022-11-10T15:42:13.331Z,97551.81
2022-11-10T15:45:06.363Z,97644.59
2022-11-10T15:47:33.106Z,97526.28
2022-11-10T15:50:00.575Z,97443.50
2022-11-10T15:52:27.215Z,97408.50
2022-11-10T15:54:53.885Z,97535.16
2022-11-10T15:57:20.562Z,97548.09
2022-11-10T15:59:47.311Z,97515.63
2022-11-10T16:02:24.306Z,97316.53
2022-11-10T16:04:57.008Z,97635.13
2022-11-10T16:07:26.655Z,97544.00
2022-11-10T16:09:53.377Z,97589.31
2022-11-10T16:12:20.738Z,97615.72
2022-11-10T16:14:52.189Z,97564.34
2022-11-10T16:17:18.908Z,97480.00
2022-11-10T16:19:46.307Z,97480.34
2022-11-10T16:22:13.249Z,97517.81
2022-11-10T16:24:40.307Z,97579.34
2022-11-10T16:27:07.779Z,97648.69
2022-11-10T16:29:35.269Z,97707.09
2022-11-10T16:32:02.005Z,97527.38
2022-11-10T16:34:28.674Z,97517.75
2022-11-10T16:36:55.318Z,97582.34
2022-11-10T16:39:21.978Z,97455.31
2022-11-10T16:41:48.635Z,97558.38
2022-11-10T16:44:15.442Z,97576.34
2022-11-10T16:46:42.554Z,97538.94
2022-11-10T16:49:23.582Z,97514.22
2022-11-10T16:51:50.218Z,97770.91
2022-11-10T16:54:16.875Z,97552.75
2022-11-10T16:56:43.703Z,97762.31
2022-11-10T16:59:10.750Z,97763.78
2022-11-10T17:01:40.670Z,97663.03
2022-11-10T17:04:09.263Z,97722.03
2022-11-10T17:06:36.037Z,97554.97
2022-11-10T17:09:12.486Z,97642.78
2022-11-10T17:11:39.153Z,97678.75
2022-11-10T17:14:07.109Z,97735.81
2022-11-10T17:16:37.678Z,97741.28
2022-11-10T17:19:05.146Z,97682.19
2022-11-10T17:21:33.218Z,97696.44
2022-11-10T17:24:00.093Z,97582.81
2022-11-10T17:26:26.719Z,97685.81
2022-11-10T17:28:53.418Z,97649.00
2022-11-10T17:31:20.323Z,97548.94
2022-11-10T17:33:46.921Z,97791.00
2022-11-10T17:36:20.687Z,97738.13
2022-11-10T17:38:47.396Z,97708.81
2022-11-10T17:41:18.147Z,97736.44
2022-11-10T17:43:46.048Z,97639.16
2022-11-10T17:46:13.523Z,97757.06
2022-11-10T17:48:40.289Z,97769.41
2022-11-10T17:51:11.076Z,97819.41
2022-11-10T17:53:37.683Z,97829.91
2022-11-10T17:56:04.516Z,97754.28
2022-11-10T17:58:31.191Z,97797.44
2022-11-10T18:00:57.769Z,97787.91
2022-11-10T18:03:24.678Z,97751.34
2022-11-10T18:05:51.646Z,97607.66
2022-11-10T18:08:18.318Z,97665.09
2022-11-10T18:10:51.554Z,97851.13
2022-11-10T18:13:18.625Z,97516.34
2022-11-10T18:15:46.154Z,97626.28
2022-11-10T18:18:16.746Z,97778.03
2022-11-10T18:20:43.671Z,97748.44
2022-11-10T18:23:11.592Z,97817.34
2022-11-10T18:25:42.324Z,97806.03
2022-11-10T18:28:09.476Z,97651.22
2022-11-10T18:30:37.942Z,97663.28
2022-11-10T18:33:05.673Z,97659.63
2022-11-10T18:35:33.710Z,97862.41
2022-11-10T18:38:00.453Z,97736.94
2022-11-10T18:40:27.162Z,97774.69
2022-11-10T18:43:04.478Z,97867.06
2022-11-10T18:45:36.402Z,97780.75
2022-11-10T18:48:03.900Z,97586.50
2022-11-10T18:50:30.766Z,97535.13
2022-11-10T18:52:57.899Z,97801.47
2022-11-10T18:55:24.637Z,97744.84
2022-11-10T18:57:51.403Z,97773.09
2022-11-10T19:00:18.161Z,97707.44
2022-11-10T19:02:44.839Z,97639.31
2022-11-10T19:05:11.464Z,97761.88
2022-11-10T19:07:38.121Z,97529.78
2022-11-10T19:10:05.211Z,97655.28
2022-11-10T19:12:32.118Z,97772.38
2022-11-10T19:14:58.854Z,97536.97
2022-11-10T19:17:25.540Z,97620.47
2022-11-10T19:19:56.404Z,97587.75
2022-11-10T19:22:23.682Z,97796.94
2022-11-10T19:27:37.037Z,97878.22
2022-11-10T19:30:13.356Z,97657.28
2022-11-10T19:32:40.174Z,97845.19
2022-11-10T19:35:07.069Z,97824.72
2022-11-10T19:37:34.852Z,97750.31
2022-11-10T19:40:01.598Z,97749.66
2022-11-10T19:42:28.261Z,97719.28
2022-11-10T19:44:54.877Z,97804.72
2022-11-10T19:47:21.899Z,97587.31
2022-11-10T19:49:48.829Z,97706.28
2022-11-10T19:52:15.681Z,97827.09
2022-11-10T19:54:43.647Z,97924.41
2022-11-10T19:57:10.298Z,97783.63
2022-11-10T19:59:36.927Z,97836.78
2022-11-10T20:02:03.860Z,97643.59
2022-11-10T20:04:30.514Z,97648.81
2022-11-10T20:07:23.960Z,97834.34
2022-11-10T20:09:50.717Z,97871.13
2022-11-10T20:12:17.367Z,97817.38
2022-11-10T20:14:43.979Z,97825.88
2022-11-10T20:17:10.601Z,97612.16
2022-11-10T20:19:41.150Z,97910.47
2022-11-10T20:22:08.355Z,97882.28
2022-11-10T20:24:36.222Z,97784.47
2022-11-10T20:27:03.101Z,97921.63
2022-11-10T20:29:32.759Z,97974.56
2022-11-10T20:31:59.343Z,97867.91
2022-11-10T20:34:25.952Z,97876.38
2022-11-10T20:36:54.392Z,97737.22
2022-11-10T20:39:21.278Z,97973.03
2022-11-10T20:41:47.954Z,97964.72
2022-11-10T20:44:14.702Z,97645.34
2022-11-10T20:46:53.898Z,97712.66
2022-11-10T20:49:21.309Z,97950.19
2022-11-10T20:51:47.899Z,97959.72
2022-11-10T20:54:15.188Z,97976.34
2022-11-10T20:56:42.332Z,97933.94
2022-11-10T20:59:08.993Z,97752.66
2022-11-10T21:01:37.851Z,97752.22
2022-11-10T21:04:06.360Z,97867.09
2022-11-10T21:06:33.066Z,97935.19
2022-11-10T21:08:59.802Z,97637.16
2022-11-10T21:11:45.091Z,97895.69
2022-11-10T21:14:12.396Z,97942.81
2022-11-10T21:16:39.038Z,97958.47
2022-11-10T21:19:06.415Z,97923.09
2022-11-10T21:21:36.382Z,97985.56
2022-11-10T21:24:04.228Z,97881.69
2022-11-10T21:26:32.279Z,97845.44
2022-11-10T21:28:59.165Z,97796.44
2022-11-10T21:31:26.034Z,97960.50
2022-11-10T21:33:56.408Z,97930.72
2022-11-10T21:36:23.341Z,98036.81
2022-11-10T21:38:50.011Z,97917.13
2022-11-10T21:41:16.684Z,97941.88
2022-11-10T21:43:43.330Z,97943.84
2022-11-10T21:46:10.315Z,97865.47
2022-11-10T21:48:37.687Z,97897.47
2022-11-10T21:51:05.816Z,97938.88
2022-11-10T21:53:33.305Z,97900.16
2022-11-10T21:56:01.182Z,97898.69
2022-11-10T21:58:28.354Z,97915.50
2022-11-10T22:01:09.660Z,97888.34
2022-11-10T22:03:37.172Z,97958.47
2022-11-10T22:06:04.947Z,98000.03
2022-11-10T22:08:32.075Z,98004.56
2022-11-10T22:11:17.165Z,98011.75
2022-11-10T22:14:02.260Z,97798.03
2022-11-10T22:16:50.118Z,97898.97
2022-11-10T22:19:17.124Z,97941.09
2022-11-10T22:21:44.307Z,97943.97
2022-11-10T22:24:29.152Z,98035.47
2022-11-10T22:27:00.449Z,97937.31
2022-11-10T22:29:31.464Z,97792.41
2022-11-10T22:32:01.890Z,97978.34
2022-11-10T22:34:28.601Z,97919.94
2022-11-10T22:36:55.542Z,98018.81
2022-11-10T22:39:22.220Z,97843.47
2022-11-10T22:42:07.926Z,98054.88
2022-11-10T22:44:34.634Z,97903.91
2022-11-10T22:47:01.393Z,97901.28
2022-11-10T22:49:28.067Z,98049.09
2022-11-10T22:51:55.690Z,98023.50
2022-11-10T22:54:30.844Z,97763.94
2022-11-10T22:57:00.720Z,97966.19
2022-11-10T22:59:27.356Z,97946.34
2022-11-10T23:01:56.110Z,97991.25
2022-11-10T23:04:22.937Z,97961.34
2022-11-10T23:06:49.895Z,97947.81
2022-11-10T23:09:16.629Z,97737.94
2022-11-10T23:11:43.266Z,97894.09
2022-11-10T23:14:10.280Z,97979.69
2022-11-10T23:16:36.891Z,97753.56
2022-11-10T23:19:03.526Z,97844.72
2022-11-10T23:21:30.531Z,97937.59
2022-11-10T23:23:57.234Z,97816.66
2022-11-10T23:26:25.487Z,97904.06
2022-11-10T23:28:52.806Z,97912.06
2022-11-10T23:31:21.043Z,97869.34
2022-11-10T23:33:50.483Z,97657.28
2022-11-10T23:36:18.493Z,97922.88
2022-11-10T23:38:45.422Z,97702.34
2022-11-10T23:41:13.750Z,97862.09
2022-11-10T23:43:40.722Z,97740.97
2022-11-10T23:46:10.108Z,97788.13
2022-11-10T23:48:37.183Z,97827.16
2022-11-10T23:51:04.413Z,97852.06
2022-11-10T23:53:31.027Z,97966.81
2022-11-10T23:56:02.303Z,97691.97
2022-11-10T23:58:29.217Z,98035.34
